sensor_id;sensor_type;location;lat;lon;timestamp;P1;durP1;ratioP1;P2;durP2;ratioP2
27612;SDS011;15036;48.094;-1.690;2022-10-16T00:01:17;11.40;;;4.75;;
27612;SDS011;15036;48.094;-1.690;2022-10-16T00:03:45;8.05;;;4.32;;
27612;SDS011;15036;48.094;-1.690;2022-10-16T00:06:12;9.50;;;5.10;;
27612;SDS011;15036;48.094;-1.690;2022-10-16T00:08:38;9.23;;;5.05;;
27612;SDS011;15036;48.094;-1.690;2022-10-16T00:11:07;11.25;;;5.75;;
27612;SDS011;15036;48.094;-1.690;2022-10-16T00:13:36;7.97;;;4.95;;
27612;SDS011;15036;48.094;-1.690;2022-10-16T00:16:03;13.38;;;6.20;;
27612;SDS011;15036;48.094;-1.690;2022-10-16T00:18:29;9.38;;;6.32;;
27612;SDS011;15036;48.094;-1.690;2022-10-16T00:20:55;12.38;;;6.55;;
27612;SDS011;15036;48.094;-1.690;2022-10-16T00:23:25;11.52;;;6.60;;
27612;SDS011;15036;48.094;-1.690;2022-10-16T00:25:54;12.60;;;6.97;;
27612;SDS011;15036;48.094;-1.690;2022-10-16T00:30:47;15.07;;;7.28;;
27612;SDS011;15036;48.094;-1.690;2022-10-16T00:33:12;10.88;;;7.82;;
27612;SDS011;15036;48.094;-1.690;2022-10-16T00:35:38;13.52;;;7.90;;
27612;SDS011;15036;48.094;-1.690;2022-10-16T00:38:03;12.27;;;7.20;;
27612;SDS011;15036;48.094;-1.690;2022-10-16T00:40:28;14.90;;;8.82;;
27612;SDS011;15036;48.094;-1.690;2022-10-16T00:42:54;15.38;;;8.93;;
27612;SDS011;15036;48.094;-1.690;2022-10-16T00:45:19;12.02;;;7.97;;
27612;SDS011;15036;48.094;-1.690;2022-10-16T00:47:45;14.02;;;9.15;;
27612;SDS011;15036;48.094;-1.690;2022-10-16T00:52:47;13.82;;;9.45;;
27612;SDS011;15036;48.094;-1.690;2022-10-16T00:55:14;11.95;;;8.43;;
27612;SDS011;15036;48.094;-1.690;2022-10-16T00:57:41;12.77;;;8.05;;
27612;SDS011;15036;48.094;-1.690;2022-10-16T01:00:09;12.48;;;8.55;;
27612;SDS011;15036;48.094;-1.690;2022-10-16T01:02:36;12.98;;;8.70;;
27612;SDS011;15036;48.094;-1.690;2022-10-16T01:05:02;12.93;;;8.05;;
27612;SDS011;15036;48.094;-1.690;2022-10-16T01:12:41;13.13;;;8.48;;
27612;SDS011;15036;48.094;-1.690;2022-10-16T01:15:09;14.23;;;8.85;;
27612;SDS011;15036;48.094;-1.690;2022-10-16T01:17:41;13.02;;;8.82;;
27612;SDS011;15036;48.094;-1.690;2022-10-16T01:20:16;12.93;;;8.82;;
27612;SDS011;15036;48.094;-1.690;2022-10-16T01:22:59;11.43;;;8.32;;
27612;SDS011;15036;48.094;-1.690;2022-10-16T01:28:40;11.73;;;8.32;;
27612;SDS011;15036;48.094;-1.690;2022-10-16T01:31:07;14.63;;;9.07;;
27612;SDS011;15036;48.094;-1.690;2022-10-16T01:33:40;13.35;;;8.43;;
27612;SDS011;15036;48.094;-1.690;2022-10-16T01:36:12;15.98;;;7.95;;
27612;SDS011;15036;48.094;-1.690;2022-10-16T01:41:12;13.95;;;7.55;;
27612;SDS011;15036;48.094;-1.690;2022-10-16T01:44:02;14.82;;;8.13;;
27612;SDS011;15036;48.094;-1.690;2022-10-16T01:46:43;13.38;;;8.00;;
27612;SDS011;15036;48.094;-1.690;2022-10-16T01:49:10;9.75;;;7.20;;
27612;SDS011;15036;48.094;-1.690;2022-10-16T01:51:37;10.90;;;7.15;;
27612;SDS011;15036;48.094;-1.690;2022-10-16T01:54:03;14.43;;;7.30;;
27612;SDS011;15036;48.094;-1.690;2022-10-16T01:56:32;12.40;;;7.10;;
27612;SDS011;15036;48.094;-1.690;2022-10-16T01:59:04;9.35;;;7.30;;
27612;SDS011;15036;48.094;-1.690;2022-10-16T02:01:34;12.77;;;7.07;;
27612;SDS011;15036;48.094;-1.690;2022-10-16T02:04:27;11.50;;;6.50;;
27612;SDS011;15036;48.094;-1.690;2022-10-16T02:06:57;10.98;;;6.80;;
27612;SDS011;15036;48.094;-1.690;2022-10-16T02:09:24;11.73;;;6.60;;
27612;SDS011;15036;48.094;-1.690;2022-10-16T02:11:50;12.20;;;6.43;;
27612;SDS011;15036;48.094;-1.690;2022-10-16T02:14:19;9.43;;;5.90;;
27612;SDS011;15036;48.094;-1.690;2022-10-16T02:16:47;10.82;;;6.50;;
27612;SDS011;15036;48.094;-1.690;2022-10-16T02:19:13;12.27;;;6.10;;
27612;SDS011;15036;48.094;-1.690;2022-10-16T02:21:44;9.57;;;6.32;;
27612;SDS011;15036;48.094;-1.690;2022-10-16T02:27:01;13.43;;;6.70;;
27612;SDS011;15036;48.094;-1.690;2022-10-16T02:29:29;11.02;;;6.60;;
27612;SDS011;15036;48.094;-1.690;2022-10-16T02:31:57;9.57;;;6.63;;
27612;SDS011;15036;48.094;-1.690;2022-10-16T02:34:27;9.80;;;7.35;;
27612;SDS011;15036;48.094;-1.690;2022-10-16T02:36:55;10.07;;;6.78;;
27612;SDS011;15036;48.094;-1.690;2022-10-16T02:39:23;10.10;;;6.20;;
27612;SDS011;15036;48.094;-1.690;2022-10-16T02:41:49;11.43;;;6.32;;
27612;SDS011;15036;48.094;-1.690;2022-10-16T02:44:14;11.63;;;6.28;;
27612;SDS011;15036;48.094;-1.690;2022-10-16T02:46:40;10.68;;;6.72;;
27612;SDS011;15036;48.094;-1.690;2022-10-16T02:49:05;11.15;;;6.18;;
27612;SDS011;15036;48.094;-1.690;2022-10-16T02:51:30;12.68;;;7.05;;
27612;SDS011;15036;48.094;-1.690;2022-10-16T02:53:56;13.00;;;6.43;;
27612;SDS011;15036;48.094;-1.690;2022-10-16T02:56:21;12.38;;;6.70;;
27612;SDS011;15036;48.094;-1.690;2022-10-16T02:58:47;10.30;;;6.38;;
27612;SDS011;15036;48.094;-1.690;2022-10-16T03:01:12;11.75;;;7.55;;
27612;SDS011;15036;48.094;-1.690;2022-10-16T03:03:39;10.85;;;6.68;;
27612;SDS011;15036;48.094;-1.690;2022-10-16T03:06:04;10.15;;;6.68;;
27612;SDS011;15036;48.094;-1.690;2022-10-16T03:08:30;12.50;;;6.80;;
27612;SDS011;15036;48.094;-1.690;2022-10-16T03:10:56;11.77;;;7.07;;
27612;SDS011;15036;48.094;-1.690;2022-10-16T03:13:21;12.07;;;7.28;;
27612;SDS011;15036;48.094;-1.690;2022-10-16T03:15:47;13.48;;;7.57;;
27612;SDS011;15036;48.094;-1.690;2022-10-16T03:18:12;10.98;;;7.30;;
27612;SDS011;15036;48.094;-1.690;2022-10-16T03:20:38;11.93;;;7.78;;
27612;SDS011;15036;48.094;-1.690;2022-10-16T03:23:03;13.15;;;7.40;;
27612;SDS011;15036;48.094;-1.690;2022-10-16T03:25:29;12.57;;;8.13;;
27612;SDS011;15036;48.094;-1.690;2022-10-16T03:27:54;13.55;;;7.57;;
27612;SDS011;15036;48.094;-1.690;2022-10-16T03:30:20;9.93;;;7.28;;
27612;SDS011;15036;48.094;-1.690;2022-10-16T03:32:45;11.55;;;7.88;;
27612;SDS011;15036;48.094;-1.690;2022-10-16T03:35:11;13.40;;;7.45;;
27612;SDS011;15036;48.094;-1.690;2022-10-16T03:37:37;11.88;;;7.82;;
27612;SDS011;15036;48.094;-1.690;2022-10-16T03:40:03;15.90;;;8.20;;
27612;SDS011;15036;48.094;-1.690;2022-10-16T03:42:29;14.52;;;8.10;;
27612;SDS011;15036;48.094;-1.690;2022-10-16T03:44:54;13.98;;;7.53;;
27612;SDS011;15036;48.094;-1.690;2022-10-16T03:47:20;13.18;;;7.38;;
27612;SDS011;15036;48.094;-1.690;2022-10-16T03:49:47;14.80;;;7.97;;
27612;SDS011;15036;48.094;-1.690;2022-10-16T03:52:13;12.10;;;7.97;;
27612;SDS011;15036;48.094;-1.690;2022-10-16T03:54:38;11.88;;;7.35;;
27612;SDS011;15036;48.094;-1.690;2022-10-16T03:57:04;14.85;;;8.15;;
27612;SDS011;15036;48.094;-1.690;2022-10-16T03:59:29;15.57;;;8.52;;
27612;SDS011;15036;48.094;-1.690;2022-10-16T04:01:54;15.32;;;7.55;;
27612;SDS011;15036;48.094;-1.690;2022-10-16T04:04:20;18.98;;;8.63;;
27612;SDS011;15036;48.094;-1.690;2022-10-16T04:06:45;12.52;;;7.95;;
27612;SDS011;15036;48.094;-1.690;2022-10-16T04:09:10;16.20;;;8.40;;
27612;SDS011;15036;48.094;-1.690;2022-10-16T04:11:36;16.55;;;9.05;;
27612;SDS011;15036;48.094;-1.690;2022-10-16T04:14:01;12.48;;;7.65;;
27612;SDS011;15036;48.094;-1.690;2022-10-16T04:16:27;14.23;;;8.27;;
27612;SDS011;15036;48.094;-1.690;2022-10-16T04:18:52;13.88;;;8.52;;
27612;SDS011;15036;48.094;-1.690;2022-10-16T04:21:17;13.43;;;8.10;;
27612;SDS011;15036;48.094;-1.690;2022-10-16T04:23:43;15.10;;;8.82;;
27612;SDS011;15036;48.094;-1.690;2022-10-16T04:26:08;14.73;;;8.63;;
27612;SDS011;15036;48.094;-1.690;2022-10-16T04:28:35;15.02;;;7.90;;
27612;SDS011;15036;48.094;-1.690;2022-10-16T04:31:03;13.90;;;7.93;;
27612;SDS011;15036;48.094;-1.690;2022-10-16T04:33:29;15.75;;;8.63;;
27612;SDS011;15036;48.094;-1.690;2022-10-16T04:35:58;14.93;;;8.73;;
27612;SDS011;15036;48.094;-1.690;2022-10-16T04:38:24;13.57;;;8.25;;
27612;SDS011;15036;48.094;-1.690;2022-10-16T04:40:50;16.63;;;9.15;;
27612;SDS011;15036;48.094;-1.690;2022-10-16T04:43:16;17.52;;;9.30;;
27612;SDS011;15036;48.094;-1.690;2022-10-16T04:45:41;14.50;;;9.05;;
27612;SDS011;15036;48.094;-1.690;2022-10-16T04:48:06;16.52;;;9.70;;
27612;SDS011;15036;48.094;-1.690;2022-10-16T04:50:32;16.65;;;9.52;;
27612;SDS011;15036;48.094;-1.690;2022-10-16T04:52:57;15.30;;;9.55;;
27612;SDS011;15036;48.094;-1.690;2022-10-16T04:55:23;17.52;;;9.70;;
27612;SDS011;15036;48.094;-1.690;2022-10-16T04:57:48;16.30;;;9.20;;
27612;SDS011;15036;48.094;-1.690;2022-10-16T05:00:14;15.60;;;9.52;;
27612;SDS011;15036;48.094;-1.690;2022-10-16T05:02:40;16.67;;;9.90;;
27612;SDS011;15036;48.094;-1.690;2022-10-16T05:05:05;16.90;;;10.75;;
27612;SDS011;15036;48.094;-1.690;2022-10-16T05:07:31;19.15;;;10.63;;
27612;SDS011;15036;48.094;-1.690;2022-10-16T05:09:56;19.70;;;10.65;;
27612;SDS011;15036;48.094;-1.690;2022-10-16T05:12:21;16.98;;;10.00;;
27612;SDS011;15036;48.094;-1.690;2022-10-16T05:14:47;15.40;;;10.23;;
27612;SDS011;15036;48.094;-1.690;2022-10-16T05:17:12;18.17;;;10.30;;
27612;SDS011;15036;48.094;-1.690;2022-10-16T05:19:38;18.65;;;10.70;;
27612;SDS011;15036;48.094;-1.690;2022-10-16T05:22:03;17.85;;;10.05;;
27612;SDS011;15036;48.094;-1.690;2022-10-16T05:24:28;19.08;;;10.52;;
27612;SDS011;15036;48.094;-1.690;2022-10-16T05:26:54;17.45;;;10.38;;
27612;SDS011;15036;48.094;-1.690;2022-10-16T05:29:19;18.80;;;10.52;;
27612;SDS011;15036;48.094;-1.690;2022-10-16T05:31:45;19.85;;;11.30;;
27612;SDS011;15036;48.094;-1.690;2022-10-16T05:34:11;19.48;;;10.73;;
27612;SDS011;15036;48.094;-1.690;2022-10-16T05:36:36;18.50;;;10.85;;
27612;SDS011;15036;48.094;-1.690;2022-10-16T05:39:02;16.85;;;10.40;;
27612;SDS011;15036;48.094;-1.690;2022-10-16T05:41:27;16.42;;;10.27;;
27612;SDS011;15036;48.094;-1.690;2022-10-16T05:43:53;17.50;;;10.50;;
27612;SDS011;15036;48.094;-1.690;2022-10-16T05:46:18;16.33;;;10.13;;
27612;SDS011;15036;48.094;-1.690;2022-10-16T05:48:44;17.27;;;10.65;;
27612;SDS011;15036;48.094;-1.690;2022-10-16T05:51:10;14.88;;;10.15;;
27612;SDS011;15036;48.094;-1.690;2022-10-16T05:53:38;16.02;;;10.57;;
27612;SDS011;15036;48.094;-1.690;2022-10-16T05:56:05;17.40;;;10.55;;
27612;SDS011;15036;48.094;-1.690;2022-10-16T05:58:32;17.35;;;10.63;;
27612;SDS011;15036;48.094;-1.690;2022-10-16T06:01:04;17.63;;;10.98;;
27612;SDS011;15036;48.094;-1.690;2022-10-16T06:03:32;18.02;;;10.55;;
27612;SDS011;15036;48.094;-1.690;2022-10-16T06:05:58;17.15;;;10.40;;
27612;SDS011;15036;48.094;-1.690;2022-10-16T06:08:23;17.45;;;10.50;;
27612;SDS011;15036;48.094;-1.690;2022-10-16T06:10:49;17.30;;;10.82;;
27612;SDS011;15036;48.094;-1.690;2022-10-16T06:13:24;20.95;;;11.02;;
27612;SDS011;15036;48.094;-1.690;2022-10-16T06:15:50;19.40;;;11.73;;
27612;SDS011;15036;48.094;-1.690;2022-10-16T06:18:15;19.65;;;11.00;;
27612;SDS011;15036;48.094;-1.690;2022-10-16T06:20:40;17.73;;;10.07;;
27612;SDS011;15036;48.094;-1.690;2022-10-16T06:23:06;18.13;;;10.77;;
27612;SDS011;15036;48.094;-1.690;2022-10-16T06:25:31;19.15;;;12.27;;
27612;SDS011;15036;48.094;-1.690;2022-10-16T06:27:57;22.90;;;11.68;;
27612;SDS011;15036;48.094;-1.690;2022-10-16T06:30:22;20.45;;;11.80;;
27612;SDS011;15036;48.094;-1.690;2022-10-16T06:32:47;20.17;;;11.18;;
27612;SDS011;15036;48.094;-1.690;2022-10-16T06:35:13;20.17;;;11.63;;
27612;SDS011;15036;48.094;-1.690;2022-10-16T06:37:38;23.35;;;12.15;;
27612;SDS011;15036;48.094;-1.690;2022-10-16T06:40:04;17.83;;;11.30;;
27612;SDS011;15036;48.094;-1.690;2022-10-16T06:42:29;25.48;;;12.57;;
27612;SDS011;15036;48.094;-1.690;2022-10-16T06:44:55;22.58;;;12.25;;
27612;SDS011;15036;48.094;-1.690;2022-10-16T06:47:21;19.73;;;11.45;;
27612;SDS011;15036;48.094;-1.690;2022-10-16T06:49:46;22.40;;;12.18;;
27612;SDS011;15036;48.094;-1.690;2022-10-16T06:52:11;21.23;;;11.85;;
27612;SDS011;15036;48.094;-1.690;2022-10-16T06:54:37;21.90;;;11.50;;
27612;SDS011;15036;48.094;-1.690;2022-10-16T06:57:02;19.73;;;12.30;;
27612;SDS011;15036;48.094;-1.690;2022-10-16T06:59:28;18.25;;;11.43;;
27612;SDS011;15036;48.094;-1.690;2022-10-16T07:01:53;19.95;;;11.50;;
27612;SDS011;15036;48.094;-1.690;2022-10-16T07:04:18;19.75;;;10.60;;
27612;SDS011;15036;48.094;-1.690;2022-10-16T07:06:44;18.20;;;10.13;;
27612;SDS011;15036;48.094;-1.690;2022-10-16T07:09:09;15.80;;;9.68;;
27612;SDS011;15036;48.094;-1.690;2022-10-16T07:11:36;14.35;;;8.88;;
27612;SDS011;15036;48.094;-1.690;2022-10-16T07:14:03;12.82;;;8.88;;
27612;SDS011;15036;48.094;-1.690;2022-10-16T07:16:29;13.43;;;8.27;;
27612;SDS011;15036;48.094;-1.690;2022-10-16T07:19:00;13.98;;;8.50;;
27612;SDS011;15036;48.094;-1.690;2022-10-16T07:21:27;11.38;;;7.70;;
27612;SDS011;15036;48.094;-1.690;2022-10-16T07:24:00;12.43;;;7.85;;
27612;SDS011;15036;48.094;-1.690;2022-10-16T07:26:27;10.98;;;6.63;;
27612;SDS011;15036;48.094;-1.690;2022-10-16T07:28:55;7.35;;;5.78;;
27612;SDS011;15036;48.094;-1.690;2022-10-16T07:31:21;7.57;;;5.60;;
27612;SDS011;15036;48.094;-1.690;2022-10-16T07:33:47;7.68;;;5.15;;
27612;SDS011;15036;48.094;-1.690;2022-10-16T07:36:13;6.50;;;4.72;;
27612;SDS011;15036;48.094;-1.690;2022-10-16T07:38:40;7.03;;;3.90;;
27612;SDS011;15036;48.094;-1.690;2022-10-16T07:41:07;6.47;;;3.35;;
27612;SDS011;15036;48.094;-1.690;2022-10-16T07:43:36;6.22;;;2.63;;
27612;SDS011;15036;48.094;-1.690;2022-10-16T07:46:01;7.43;;;2.45;;
27612;SDS011;15036;48.094;-1.690;2022-10-16T07:48:27;4.07;;;2.33;;
27612;SDS011;15036;48.094;-1.690;2022-10-16T07:50:58;6.03;;;2.00;;
27612;SDS011;15036;48.094;-1.690;2022-10-16T07:53:25;4.63;;;2.30;;
27612;SDS011;15036;48.094;-1.690;2022-10-16T07:55:50;3.40;;;2.17;;
27612;SDS011;15036;48.094;-1.690;2022-10-16T07:58:16;6.55;;;2.13;;
27612;SDS011;15036;48.094;-1.690;2022-10-16T08:00:41;5.70;;;2.53;;
27612;SDS011;15036;48.094;-1.690;2022-10-16T08:03:07;3.35;;;2.15;;
27612;SDS011;15036;48.094;-1.690;2022-10-16T08:05:33;4.85;;;2.28;;
27612;SDS011;15036;48.094;-1.690;2022-10-16T08:07:59;3.90;;;2.03;;
27612;SDS011;15036;48.094;-1.690;2022-10-16T08:10:26;7.05;;;2.40;;
27612;SDS011;15036;48.094;-1.690;2022-10-16T08:12:52;7.03;;;2.42;;
27612;SDS011;15036;48.094;-1.690;2022-10-16T08:15:18;4.18;;;2.20;;
27612;SDS011;15036;48.094;-1.690;2022-10-16T08:17:44;4.80;;;2.60;;
27612;SDS011;15036;48.094;-1.690;2022-10-16T08:20:10;6.47;;;2.58;;
27612;SDS011;15036;48.094;-1.690;2022-10-16T08:22:36;4.45;;;2.30;;
27612;SDS011;15036;48.094;-1.690;2022-10-16T08:25:01;3.42;;;1.92;;
27612;SDS011;15036;48.094;-1.690;2022-10-16T08:27:32;5.47;;;1.90;;
27612;SDS011;15036;48.094;-1.690;2022-10-16T08:29:58;4.18;;;2.00;;
27612;SDS011;15036;48.094;-1.690;2022-10-16T08:32:23;5.05;;;1.80;;
27612;SDS011;15036;48.094;-1.690;2022-10-16T08:34:49;3.10;;;1.52;;
27612;SDS011;15036;48.094;-1.690;2022-10-16T08:37:14;3.42;;;1.42;;
27612;SDS011;15036;48.094;-1.690;2022-10-16T08:39:39;3.40;;;1.40;;
27612;SDS011;15036;48.094;-1.690;2022-10-16T08:42:15;5.72;;;1.58;;
27612;SDS011;15036;48.094;-1.690;2022-10-16T08:45:02;6.05;;;1.60;;
27612;SDS011;15036;48.094;-1.690;2022-10-16T08:48:00;5.03;;;1.65;;
27612;SDS011;15036;48.094;-1.690;2022-10-16T08:50:31;4.47;;;1.48;;
27612;SDS011;15036;48.094;-1.690;2022-10-16T08:53:01;4.22;;;1.20;;
27612;SDS011;15036;48.094;-1.690;2022-10-16T08:55:37;4.03;;;1.10;;
27612;SDS011;15036;48.094;-1.690;2022-10-16T09:00:43;3.45;;;1.00;;
27612;SDS011;15036;48.094;-1.690;2022-10-16T09:16:50;3.63;;;1.00;;
27612;SDS011;15036;48.094;-1.690;2022-10-16T09:19:29;2.13;;;0.88;;
27612;SDS011;15036;48.094;-1.690;2022-10-16T09:22:04;4.57;;;1.02;;
27612;SDS011;15036;48.094;-1.690;2022-10-16T09:24:42;4.03;;;0.93;;
27612;SDS011;15036;48.094;-1.690;2022-10-16T09:27:12;2.92;;;0.90;;
27612;SDS011;15036;48.094;-1.690;2022-10-16T09:29:39;4.50;;;1.05;;
27612;SDS011;15036;48.094;-1.690;2022-10-16T09:32:12;3.38;;;1.00;;
27612;SDS011;15036;48.094;-1.690;2022-10-16T09:35:01;5.63;;;1.02;;
27612;SDS011;15036;48.094;-1.690;2022-10-16T09:37:27;4.03;;;1.05;;
27612;SDS011;15036;48.094;-1.690;2022-10-16T09:39:53;3.35;;;0.98;;
27612;SDS011;15036;48.094;-1.690;2022-10-16T09:42:24;3.45;;;1.00;;
27612;SDS011;15036;48.094;-1.690;2022-10-16T09:44:56;3.35;;;1.05;;
27612;SDS011;15036;48.094;-1.690;2022-10-16T09:47:28;3.60;;;0.98;;
27612;SDS011;15036;48.094;-1.690;2022-10-16T09:50:03;2.65;;;0.82;;
27612;SDS011;15036;48.094;-1.690;2022-10-16T09:52:31;2.80;;;0.90;;
27612;SDS011;15036;48.094;-1.690;2022-10-16T09:54:58;2.55;;;0.80;;
27612;SDS011;15036;48.094;-1.690;2022-10-16T09:57:25;2.53;;;0.75;;
27612;SDS011;15036;48.094;-1.690;2022-10-16T09:59:55;4.00;;;1.10;;
27612;SDS011;15036;48.094;-1.690;2022-10-16T10:02:34;3.17;;;1.00;;
27612;SDS011;15036;48.094;-1.690;2022-10-16T10:05:03;2.72;;;1.02;;
27612;SDS011;15036;48.094;-1.690;2022-10-16T10:07:31;4.65;;;1.08;;
27612;SDS011;15036;48.094;-1.690;2022-10-16T10:10:01;3.65;;;1.02;;
27612;SDS011;15036;48.094;-1.690;2022-10-16T10:12:30;4.43;;;1.10;;
27612;SDS011;15036;48.094;-1.690;2022-10-16T10:15:06;4.85;;;1.00;;
27612;SDS011;15036;48.094;-1.690;2022-10-16T10:17:44;3.83;;;1.20;;
27612;SDS011;15036;48.094;-1.690;2022-10-16T10:20:18;2.30;;;0.77;;
27612;SDS011;15036;48.094;-1.690;2022-10-16T10:25:24;2.53;;;0.70;;
27612;SDS011;15036;48.094;-1.690;2022-10-16T10:38:54;4.85;;;1.90;;
27612;SDS011;15036;48.094;-1.690;2022-10-16T10:44:16;3.20;;;1.20;;
27612;SDS011;15036;48.094;-1.690;2022-10-16T10:54:43;4.70;;;2.58;;
27612;SDS011;15036;48.094;-1.690;2022-10-16T11:08:11;5.55;;;1.92;;
27612;SDS011;15036;48.094;-1.690;2022-10-16T11:13:21;4.45;;;1.33;;
27612;SDS011;15036;48.094;-1.690;2022-10-16T11:15:57;3.45;;;1.70;;
27612;SDS011;15036;48.094;-1.690;2022-10-16T11:21:11;8.32;;;4.45;;
27612;SDS011;15036;48.094;-1.690;2022-10-16T11:26:15;17.88;;;11.60;;
27612;SDS011;15036;48.094;-1.690;2022-10-16T11:31:22;18.45;;;12.70;;
27612;SDS011;15036;48.094;-1.690;2022-10-16T11:34:10;12.82;;;8.80;;
27612;SDS011;15036;48.094;-1.690;2022-10-16T11:39:34;9.18;;;5.30;;
27612;SDS011;15036;48.094;-1.690;2022-10-16T11:42:03;7.10;;;3.50;;
27612;SDS011;15036;48.094;-1.690;2022-10-16T11:49:59;8.65;;;2.97;;
27612;SDS011;15036;48.094;-1.690;2022-10-16T11:55:49;4.93;;;3.15;;
27612;SDS011;15036;48.094;-1.690;2022-10-16T11:58:26;5.53;;;3.03;;
27612;SDS011;15036;48.094;-1.690;2022-10-16T12:03:40;6.50;;;3.30;;
27612;SDS011;15036;48.094;-1.690;2022-10-16T12:08:40;6.07;;;2.88;;
27612;SDS011;15036;48.094;-1.690;2022-10-16T12:11:19;5.72;;;2.75;;
27612;SDS011;15036;48.094;-1.690;2022-10-16T12:13:49;7.68;;;3.25;;
27612;SDS011;15036;48.094;-1.690;2022-10-16T12:18:40;6.30;;;3.15;;
27612;SDS011;15036;48.094;-1.690;2022-10-16T12:21:08;5.93;;;3.10;;
27612;SDS011;15036;48.094;-1.690;2022-10-16T12:23:38;5.10;;;3.20;;
27612;SDS011;15036;48.094;-1.690;2022-10-16T12:26:13;5.47;;;3.05;;
27612;SDS011;15036;48.094;-1.690;2022-10-16T12:28:38;6.95;;;3.40;;
27612;SDS011;15036;48.094;-1.690;2022-10-16T12:31:06;6.28;;;3.10;;
27612;SDS011;15036;48.094;-1.690;2022-10-16T12:33:40;6.25;;;2.75;;
27612;SDS011;15036;48.094;-1.690;2022-10-16T12:36:13;5.18;;;2.63;;
27612;SDS011;15036;48.094;-1.690;2022-10-16T12:38:51;5.97;;;2.97;;
27612;SDS011;15036;48.094;-1.690;2022-10-16T12:43:52;5.65;;;2.90;;
27612;SDS011;15036;48.094;-1.690;2022-10-16T12:48:43;6.70;;;3.03;;
27612;SDS011;15036;48.094;-1.690;2022-10-16T12:59:11;5.20;;;2.92;;
27612;SDS011;15036;48.094;-1.690;2022-10-16T13:02:06;7.32;;;3.42;;
27612;SDS011;15036;48.094;-1.690;2022-10-16T13:04:52;6.00;;;3.08;;
27612;SDS011;15036;48.094;-1.690;2022-10-16T13:10:09;5.38;;;3.25;;
27612;SDS011;15036;48.094;-1.690;2022-10-16T13:16:08;5.20;;;3.22;;
27612;SDS011;15036;48.094;-1.690;2022-10-16T13:22:02;5.97;;;3.53;;
27612;SDS011;15036;48.094;-1.690;2022-10-16T13:24:54;5.05;;;3.20;;
27612;SDS011;15036;48.094;-1.690;2022-10-16T13:30:00;5.20;;;3.25;;
27612;SDS011;15036;48.094;-1.690;2022-10-16T13:32:34;4.93;;;3.28;;
27612;SDS011;15036;48.094;-1.690;2022-10-16T13:35:00;6.40;;;3.40;;
27612;SDS011;15036;48.094;-1.690;2022-10-16T13:37:26;4.05;;;3.03;;
27612;SDS011;15036;48.094;-1.690;2022-10-16T13:40:01;4.40;;;3.00;;
27612;SDS011;15036;48.094;-1.690;2022-10-16T13:42:36;5.22;;;2.83;;
27612;SDS011;15036;48.094;-1.690;2022-10-16T13:45:02;4.78;;;2.97;;
27612;SDS011;15036;48.094;-1.690;2022-10-16T13:47:28;4.15;;;2.85;;
27612;SDS011;15036;48.094;-1.690;2022-10-16T13:52:40;3.67;;;2.42;;
27612;SDS011;15036;48.094;-1.690;2022-10-16T13:55:13;3.25;;;2.10;;
27612;SDS011;15036;48.094;-1.690;2022-10-16T13:57:40;2.33;;;1.75;;
27612;SDS011;15036;48.094;-1.690;2022-10-16T14:02:49;3.70;;;1.85;;
27612;SDS011;15036;48.094;-1.690;2022-10-16T14:05:18;2.95;;;1.98;;
27612;SDS011;15036;48.094;-1.690;2022-10-16T14:07:43;3.28;;;1.58;;
27612;SDS011;15036;48.094;-1.690;2022-10-16T14:10:20;2.83;;;1.75;;
27612;SDS011;15036;48.094;-1.690;2022-10-16T14:15:48;2.40;;;1.50;;
27612;SDS011;15036;48.094;-1.690;2022-10-16T14:18:18;2.33;;;1.40;;
27612;SDS011;15036;48.094;-1.690;2022-10-16T14:20:45;2.85;;;1.58;;
27612;SDS011;15036;48.094;-1.690;2022-10-16T14:25:54;2.15;;;1.38;;
27612;SDS011;15036;48.094;-1.690;2022-10-16T14:28:31;2.25;;;1.10;;
27612;SDS011;15036;48.094;-1.690;2022-10-16T14:30:57;3.78;;;1.42;;
27612;SDS011;15036;48.094;-1.690;2022-10-16T14:33:31;3.95;;;1.60;;
27612;SDS011;15036;48.094;-1.690;2022-10-16T14:36:03;2.58;;;1.40;;
27612;SDS011;15036;48.094;-1.690;2022-10-16T14:38:31;2.85;;;1.23;;
27612;SDS011;15036;48.094;-1.690;2022-10-16T14:40:57;2.45;;;1.60;;
27612;SDS011;15036;48.094;-1.690;2022-10-16T14:43:34;1.70;;;1.30;;
27612;SDS011;15036;48.094;-1.690;2022-10-16T14:46:17;3.03;;;2.20;;
27612;SDS011;15036;48.094;-1.690;2022-10-16T14:48:51;3.38;;;1.67;;
27612;SDS011;15036;48.094;-1.690;2022-10-16T14:51:24;2.70;;;1.60;;
27612;SDS011;15036;48.094;-1.690;2022-10-16T14:53:49;3.55;;;1.65;;
27612;SDS011;15036;48.094;-1.690;2022-10-16T14:56:16;1.75;;;1.40;;
27612;SDS011;15036;48.094;-1.690;2022-10-16T14:58:47;3.45;;;1.73;;
27612;SDS011;15036;48.094;-1.690;2022-10-16T15:01:13;2.70;;;1.77;;
27612;SDS011;15036;48.094;-1.690;2022-10-16T15:03:39;1.73;;;1.40;;
27612;SDS011;15036;48.094;-1.690;2022-10-16T15:06:08;3.25;;;1.50;;
27612;SDS011;15036;48.094;-1.690;2022-10-16T15:08:38;3.00;;;1.90;;
27612;SDS011;15036;48.094;-1.690;2022-10-16T15:11:04;2.50;;;1.60;;
27612;SDS011;15036;48.094;-1.690;2022-10-16T15:13:31;3.83;;;1.65;;
27612;SDS011;15036;48.094;-1.690;2022-10-16T15:15:56;2.33;;;1.30;;
27612;SDS011;15036;48.094;-1.690;2022-10-16T15:18:21;3.80;;;1.60;;
27612;SDS011;15036;48.094;-1.690;2022-10-16T15:20:48;1.75;;;1.20;;
27612;SDS011;15036;48.094;-1.690;2022-10-16T15:23:15;2.75;;;1.80;;
27612;SDS011;15036;48.094;-1.690;2022-10-16T15:25:47;2.08;;;1.50;;
27612;SDS011;15036;48.094;-1.690;2022-10-16T15:28:14;2.40;;;1.77;;
27612;SDS011;15036;48.094;-1.690;2022-10-16T15:30:41;2.22;;;1.58;;
27612;SDS011;15036;48.094;-1.690;2022-10-16T15:33:14;6.82;;;3.85;;
27612;SDS011;15036;48.094;-1.690;2022-10-16T15:35:41;6.97;;;4.38;;
27612;SDS011;15036;48.094;-1.690;2022-10-16T15:38:11;6.85;;;4.65;;
27612;SDS011;15036;48.094;-1.690;2022-10-16T15:40:37;5.95;;;3.72;;
27612;SDS011;15036;48.094;-1.690;2022-10-16T15:43:03;2.65;;;2.10;;
27612;SDS011;15036;48.094;-1.690;2022-10-16T15:45:28;4.93;;;1.83;;
27612;SDS011;15036;48.094;-1.690;2022-10-16T15:47:53;3.10;;;2.20;;
27612;SDS011;15036;48.094;-1.690;2022-10-16T15:50:19;3.10;;;2.33;;
27612;SDS011;15036;48.094;-1.690;2022-10-16T15:52:44;3.53;;;2.13;;
27612;SDS011;15036;48.094;-1.690;2022-10-16T15:55:11;4.25;;;2.38;;
27612;SDS011;15036;48.094;-1.690;2022-10-16T15:57:38;3.67;;;2.20;;
27612;SDS011;15036;48.094;-1.690;2022-10-16T16:00:15;3.13;;;2.08;;
27612;SDS011;15036;48.094;-1.690;2022-10-16T16:02:42;3.13;;;2.25;;
27612;SDS011;15036;48.094;-1.690;2022-10-16T16:05:09;2.20;;;1.70;;
27612;SDS011;15036;48.094;-1.690;2022-10-16T16:07:36;3.83;;;2.17;;
27612;SDS011;15036;48.094;-1.690;2022-10-16T16:10:04;2.53;;;1.70;;
27612;SDS011;15036;48.094;-1.690;2022-10-16T16:12:30;3.05;;;1.98;;
27612;SDS011;15036;48.094;-1.690;2022-10-16T16:14:56;5.88;;;2.30;;
27612;SDS011;15036;48.094;-1.690;2022-10-16T16:17:22;4.35;;;2.28;;
27612;SDS011;15036;48.094;-1.690;2022-10-16T16:19:48;3.95;;;2.65;;
27612;SDS011;15036;48.094;-1.690;2022-10-16T16:22:13;3.85;;;2.10;;
27612;SDS011;15036;48.094;-1.690;2022-10-16T16:24:39;4.28;;;2.33;;
27612;SDS011;15036;48.094;-1.690;2022-10-16T16:27:04;3.70;;;2.58;;
27612;SDS011;15036;48.094;-1.690;2022-10-16T16:29:30;6.97;;;2.97;;
27612;SDS011;15036;48.094;-1.690;2022-10-16T16:31:55;4.35;;;2.90;;
27612;SDS011;15036;48.094;-1.690;2022-10-16T16:34:22;5.20;;;2.65;;
27612;SDS011;15036;48.094;-1.690;2022-10-16T16:36:49;5.10;;;2.40;;
27612;SDS011;15036;48.094;-1.690;2022-10-16T16:39:15;4.72;;;2.97;;
27612;SDS011;15036;48.094;-1.690;2022-10-16T16:41:40;4.78;;;3.22;;
27612;SDS011;15036;48.094;-1.690;2022-10-16T16:44:07;5.72;;;3.10;;
27612;SDS011;15036;48.094;-1.690;2022-10-16T16:46:35;6.85;;;3.38;;
27612;SDS011;15036;48.094;-1.690;2022-10-16T16:49:00;5.85;;;2.83;;